sensor_id;sensor_type;location;lat;lon;timestamp;P1;durP1;ratioP1;P2;durP2;ratioP2
13461;SDS011;6803;45.264;5.468;2022-12-29T00:01:00;9.37;;;6.27;;
13461;SDS011;6803;45.264;5.468;2022-12-29T00:03:31;10.37;;;7.07;;
13461;SDS011;6803;45.264;5.468;2022-12-29T00:06:02;9.60;;;6.40;;
13461;SDS011;6803;45.264;5.468;2022-12-29T00:08:32;8.60;;;6.20;;
13461;SDS011;6803;45.264;5.468;2022-12-29T00:11:10;10.67;;;5.63;;
13461;SDS011;6803;45.264;5.468;2022-12-29T00:13:43;9.33;;;5.70;;
13461;SDS011;6803;45.264;5.468;2022-12-29T00:16:32;9.57;;;6.90;;
13461;SDS011;6803;45.264;5.468;2022-12-29T00:19:04;9.83;;;6.40;;
13461;SDS011;6803;45.264;5.468;2022-12-29T00:21:37;11.83;;;7.03;;
13461;SDS011;6803;45.264;5.468;2022-12-29T00:24:26;10.87;;;6.27;;
13461;SDS011;6803;45.264;5.468;2022-12-29T00:27:14;11.27;;;7.43;;
13461;SDS011;6803;45.264;5.468;2022-12-29T00:30:05;13.73;;;8.33;;
13461;SDS011;6803;45.264;5.468;2022-12-29T00:32:57;13.47;;;7.43;;
13461;SDS011;6803;45.264;5.468;2022-12-29T00:35:45;15.43;;;7.93;;
13461;SDS011;6803;45.264;5.468;2022-12-29T00:38:18;10.30;;;6.93;;
13461;SDS011;6803;45.264;5.468;2022-12-29T00:41:07;16.43;;;7.10;;
13461;SDS011;6803;45.264;5.468;2022-12-29T00:43:55;13.77;;;8.13;;
13461;SDS011;6803;45.264;5.468;2022-12-29T00:46:37;11.73;;;7.43;;
13461;SDS011;6803;45.264;5.468;2022-12-29T00:49:09;9.53;;;6.67;;
13461;SDS011;6803;45.264;5.468;2022-12-29T00:52:02;9.20;;;6.50;;
13461;SDS011;6803;45.264;5.468;2022-12-29T00:54:34;11.17;;;7.80;;
13461;SDS011;6803;45.264;5.468;2022-12-29T00:57:07;13.73;;;7.60;;
13461;SDS011;6803;45.264;5.468;2022-12-29T00:59:40;10.43;;;7.77;;
13461;SDS011;6803;45.264;5.468;2022-12-29T01:02:13;10.83;;;7.40;;
13461;SDS011;6803;45.264;5.468;2022-12-29T01:04:44;14.73;;;7.40;;
13461;SDS011;6803;45.264;5.468;2022-12-29T01:07:15;10.67;;;7.97;;
13461;SDS011;6803;45.264;5.468;2022-12-29T01:09:46;12.43;;;7.57;;
13461;SDS011;6803;45.264;5.468;2022-12-29T01:12:34;10.57;;;7.00;;
13461;SDS011;6803;45.264;5.468;2022-12-29T01:15:13;10.40;;;7.13;;
13461;SDS011;6803;45.264;5.468;2022-12-29T01:17:45;11.57;;;7.80;;
13461;SDS011;6803;45.264;5.468;2022-12-29T01:20:15;10.13;;;7.50;;
13461;SDS011;6803;45.264;5.468;2022-12-29T01:22:47;8.93;;;6.73;;
13461;SDS011;6803;45.264;5.468;2022-12-29T01:25:17;11.13;;;7.37;;
13461;SDS011;6803;45.264;5.468;2022-12-29T01:27:48;10.93;;;7.17;;
13461;SDS011;6803;45.264;5.468;2022-12-29T01:30:19;11.20;;;7.57;;
13461;SDS011;6803;45.264;5.468;2022-12-29T01:32:49;10.03;;;8.03;;
13461;SDS011;6803;45.264;5.468;2022-12-29T01:35:20;15.67;;;7.77;;
13461;SDS011;6803;45.264;5.468;2022-12-29T01:37:51;10.90;;;7.20;;
13461;SDS011;6803;45.264;5.468;2022-12-29T01:40:22;13.60;;;7.63;;
13461;SDS011;6803;45.264;5.468;2022-12-29T01:42:52;12.73;;;6.60;;
13461;SDS011;6803;45.264;5.468;2022-12-29T01:45:23;9.93;;;6.80;;
13461;SDS011;6803;45.264;5.468;2022-12-29T01:47:55;10.97;;;6.63;;
13461;SDS011;6803;45.264;5.468;2022-12-29T01:50:28;10.63;;;6.63;;
13461;SDS011;6803;45.264;5.468;2022-12-29T01:53:02;9.40;;;6.83;;
13461;SDS011;6803;45.264;5.468;2022-12-29T01:55:35;8.93;;;7.13;;
13461;SDS011;6803;45.264;5.468;2022-12-29T01:58:08;10.07;;;7.47;;
13461;SDS011;6803;45.264;5.468;2022-12-29T02:00:41;18.00;;;10.03;;
13461;SDS011;6803;45.264;5.468;2022-12-29T02:03:12;14.17;;;8.73;;
13461;SDS011;6803;45.264;5.468;2022-12-29T02:05:44;15.13;;;9.10;;
13461;SDS011;6803;45.264;5.468;2022-12-29T02:08:19;11.23;;;8.80;;
13461;SDS011;6803;45.264;5.468;2022-12-29T02:10:51;13.00;;;8.13;;
13461;SDS011;6803;45.264;5.468;2022-12-29T02:13:24;13.73;;;8.03;;
13461;SDS011;6803;45.264;5.468;2022-12-29T02:16:00;11.40;;;7.70;;
13461;SDS011;6803;45.264;5.468;2022-12-29T02:18:34;11.57;;;7.87;;
13461;SDS011;6803;45.264;5.468;2022-12-29T02:27:42;13.00;;;7.40;;
13461;SDS011;6803;45.264;5.468;2022-12-29T02:33:37;12.10;;;7.83;;
13461;SDS011;6803;45.264;5.468;2022-12-29T02:36:12;15.33;;;7.73;;
13461;SDS011;6803;45.264;5.468;2022-12-29T02:38:49;15.17;;;9.10;;
13461;SDS011;6803;45.264;5.468;2022-12-29T02:41:25;10.40;;;7.60;;
13461;SDS011;6803;45.264;5.468;2022-12-29T02:44:01;15.30;;;9.00;;
13461;SDS011;6803;45.264;5.468;2022-12-29T02:46:35;16.00;;;8.40;;
13461;SDS011;6803;45.264;5.468;2022-12-29T02:49:09;16.67;;;9.30;;
13461;SDS011;6803;45.264;5.468;2022-12-29T02:51:44;14.27;;;8.10;;
13461;SDS011;6803;45.264;5.468;2022-12-29T02:54:18;12.47;;;8.17;;
13461;SDS011;6803;45.264;5.468;2022-12-29T02:57:09;11.03;;;8.27;;
13461;SDS011;6803;45.264;5.468;2022-12-29T02:59:44;11.07;;;8.13;;
13461;SDS011;6803;45.264;5.468;2022-12-29T03:02:21;11.27;;;6.93;;
13461;SDS011;6803;45.264;5.468;2022-12-29T03:05:18;13.17;;;9.07;;
13461;SDS011;6803;45.264;5.468;2022-12-29T03:08:05;15.43;;;9.00;;
13461;SDS011;6803;45.264;5.468;2022-12-29T03:10:41;14.57;;;8.40;;
13461;SDS011;6803;45.264;5.468;2022-12-29T03:13:15;13.40;;;8.83;;
13461;SDS011;6803;45.264;5.468;2022-12-29T03:16:05;11.60;;;8.13;;
13461;SDS011;6803;45.264;5.468;2022-12-29T03:18:40;11.07;;;8.00;;
13461;SDS011;6803;45.264;5.468;2022-12-29T03:21:17;13.93;;;8.23;;
13461;SDS011;6803;45.264;5.468;2022-12-29T03:23:49;17.07;;;9.03;;
13461;SDS011;6803;45.264;5.468;2022-12-29T03:26:20;17.70;;;10.67;;
13461;SDS011;6803;45.264;5.468;2022-12-29T03:28:51;13.77;;;9.87;;
13461;SDS011;6803;45.264;5.468;2022-12-29T03:31:25;15.13;;;9.50;;
13461;SDS011;6803;45.264;5.468;2022-12-29T03:33:56;15.37;;;9.27;;
13461;SDS011;6803;45.264;5.468;2022-12-29T03:36:30;15.00;;;9.83;;
13461;SDS011;6803;45.264;5.468;2022-12-29T03:39:03;16.23;;;9.70;;
13461;SDS011;6803;45.264;5.468;2022-12-29T03:41:36;14.17;;;8.70;;
13461;SDS011;6803;45.264;5.468;2022-12-29T03:44:08;13.23;;;9.03;;
13461;SDS011;6803;45.264;5.468;2022-12-29T03:46:41;14.07;;;9.00;;
13461;SDS011;6803;45.264;5.468;2022-12-29T03:49:12;13.63;;;8.77;;
13461;SDS011;6803;45.264;5.468;2022-12-29T03:51:44;9.27;;;7.23;;
13461;SDS011;6803;45.264;5.468;2022-12-29T03:54:16;13.07;;;9.20;;
13461;SDS011;6803;45.264;5.468;2022-12-29T03:56:47;10.93;;;8.20;;
13461;SDS011;6803;45.264;5.468;2022-12-29T03:59:17;16.57;;;10.30;;
13461;SDS011;6803;45.264;5.468;2022-12-29T04:01:48;14.17;;;9.80;;
13461;SDS011;6803;45.264;5.468;2022-12-29T04:04:19;16.73;;;10.40;;
13461;SDS011;6803;45.264;5.468;2022-12-29T04:06:50;15.77;;;11.07;;
13461;SDS011;6803;45.264;5.468;2022-12-29T04:09:20;17.27;;;11.13;;
13461;SDS011;6803;45.264;5.468;2022-12-29T04:11:51;18.00;;;10.93;;
13461;SDS011;6803;45.264;5.468;2022-12-29T04:14:22;17.83;;;10.77;;
13461;SDS011;6803;45.264;5.468;2022-12-29T04:16:52;16.27;;;10.27;;
13461;SDS011;6803;45.264;5.468;2022-12-29T04:19:23;15.27;;;10.40;;
13461;SDS011;6803;45.264;5.468;2022-12-29T04:21:54;22.00;;;10.40;;
13461;SDS011;6803;45.264;5.468;2022-12-29T04:24:24;16.43;;;10.53;;
13461;SDS011;6803;45.264;5.468;2022-12-29T04:26:55;14.00;;;9.97;;
13461;SDS011;6803;45.264;5.468;2022-12-29T04:29:26;18.07;;;11.07;;
13461;SDS011;6803;45.264;5.468;2022-12-29T04:31:56;12.30;;;10.03;;
13461;SDS011;6803;45.264;5.468;2022-12-29T04:34:27;15.03;;;10.40;;
13461;SDS011;6803;45.264;5.468;2022-12-29T04:36:58;16.67;;;11.10;;
13461;SDS011;6803;45.264;5.468;2022-12-29T04:39:28;14.03;;;10.20;;
13461;SDS011;6803;45.264;5.468;2022-12-29T04:42:00;15.40;;;10.23;;
13461;SDS011;6803;45.264;5.468;2022-12-29T04:44:31;14.43;;;10.07;;
13461;SDS011;6803;45.264;5.468;2022-12-29T04:47:03;15.53;;;9.67;;
13461;SDS011;6803;45.264;5.468;2022-12-29T04:49:34;15.87;;;10.53;;
13461;SDS011;6803;45.264;5.468;2022-12-29T04:52:05;12.70;;;10.07;;
13461;SDS011;6803;45.264;5.468;2022-12-29T04:54:36;13.73;;;9.20;;
13461;SDS011;6803;45.264;5.468;2022-12-29T04:57:07;15.13;;;10.93;;
13461;SDS011;6803;45.264;5.468;2022-12-29T04:59:38;14.40;;;10.27;;
13461;SDS011;6803;45.264;5.468;2022-12-29T05:02:08;15.70;;;10.03;;
13461;SDS011;6803;45.264;5.468;2022-12-29T05:04:41;15.10;;;10.77;;
13461;SDS011;6803;45.264;5.468;2022-12-29T05:07:11;16.43;;;10.87;;
13461;SDS011;6803;45.264;5.468;2022-12-29T05:09:42;16.80;;;11.63;;
13461;SDS011;6803;45.264;5.468;2022-12-29T05:12:13;15.97;;;10.70;;
13461;SDS011;6803;45.264;5.468;2022-12-29T05:14:44;17.13;;;10.40;;
13461;SDS011;6803;45.264;5.468;2022-12-29T05:17:15;17.27;;;10.37;;
13461;SDS011;6803;45.264;5.468;2022-12-29T05:19:46;14.80;;;10.80;;
13461;SDS011;6803;45.264;5.468;2022-12-29T05:22:16;14.97;;;11.73;;
13461;SDS011;6803;45.264;5.468;2022-12-29T05:24:47;15.23;;;10.50;;
13461;SDS011;6803;45.264;5.468;2022-12-29T05:27:18;16.23;;;10.87;;
13461;SDS011;6803;45.264;5.468;2022-12-29T05:29:48;19.27;;;10.43;;
13461;SDS011;6803;45.264;5.468;2022-12-29T05:32:19;15.80;;;9.83;;
13461;SDS011;6803;45.264;5.468;2022-12-29T05:34:50;15.80;;;9.50;;
13461;SDS011;6803;45.264;5.468;2022-12-29T05:37:20;13.30;;;9.33;;
13461;SDS011;6803;45.264;5.468;2022-12-29T05:39:51;16.23;;;9.50;;
13461;SDS011;6803;45.264;5.468;2022-12-29T05:42:22;14.93;;;9.67;;
13461;SDS011;6803;45.264;5.468;2022-12-29T05:44:52;15.80;;;10.80;;
13461;SDS011;6803;45.264;5.468;2022-12-29T05:47:23;16.07;;;11.03;;
13461;SDS011;6803;45.264;5.468;2022-12-29T05:49:54;18.63;;;11.30;;
13461;SDS011;6803;45.264;5.468;2022-12-29T05:52:24;16.27;;;10.63;;
13461;SDS011;6803;45.264;5.468;2022-12-29T05:54:55;18.07;;;11.50;;
13461;SDS011;6803;45.264;5.468;2022-12-29T05:57:26;15.33;;;11.60;;
13461;SDS011;6803;45.264;5.468;2022-12-29T05:59:57;21.00;;;11.40;;
13461;SDS011;6803;45.264;5.468;2022-12-29T06:02:27;17.67;;;10.80;;
13461;SDS011;6803;45.264;5.468;2022-12-29T06:04:58;15.50;;;10.23;;
13461;SDS011;6803;45.264;5.468;2022-12-29T06:07:29;17.03;;;10.80;;
13461;SDS011;6803;45.264;5.468;2022-12-29T06:10:00;16.60;;;11.67;;
13461;SDS011;6803;45.264;5.468;2022-12-29T06:12:30;15.53;;;9.70;;
13461;SDS011;6803;45.264;5.468;2022-12-29T06:15:01;15.40;;;10.20;;
13461;SDS011;6803;45.264;5.468;2022-12-29T06:17:33;17.00;;;10.70;;
13461;SDS011;6803;45.264;5.468;2022-12-29T06:20:05;15.43;;;10.83;;
13461;SDS011;6803;45.264;5.468;2022-12-29T06:22:37;14.50;;;9.57;;
13461;SDS011;6803;45.264;5.468;2022-12-29T06:25:09;15.87;;;11.57;;
13461;SDS011;6803;45.264;5.468;2022-12-29T06:27:40;16.97;;;10.80;;
13461;SDS011;6803;45.264;5.468;2022-12-29T06:30:12;18.17;;;11.23;;
13461;SDS011;6803;45.264;5.468;2022-12-29T06:32:44;16.83;;;10.57;;
13461;SDS011;6803;45.264;5.468;2022-12-29T06:35:15;16.57;;;10.00;;
13461;SDS011;6803;45.264;5.468;2022-12-29T06:37:46;15.93;;;9.83;;
13461;SDS011;6803;45.264;5.468;2022-12-29T06:40:17;12.20;;;8.60;;
13461;SDS011;6803;45.264;5.468;2022-12-29T06:42:49;16.27;;;10.43;;
13461;SDS011;6803;45.264;5.468;2022-12-29T06:45:20;18.90;;;10.70;;
13461;SDS011;6803;45.264;5.468;2022-12-29T06:47:50;16.53;;;11.00;;
13461;SDS011;6803;45.264;5.468;2022-12-29T06:50:22;17.53;;;11.27;;
13461;SDS011;6803;45.264;5.468;2022-12-29T06:52:53;16.50;;;11.83;;
13461;SDS011;6803;45.264;5.468;2022-12-29T06:55:24;14.67;;;11.40;;
13461;SDS011;6803;45.264;5.468;2022-12-29T06:57:56;16.80;;;11.20;;
13461;SDS011;6803;45.264;5.468;2022-12-29T07:00:29;16.23;;;11.23;;
13461;SDS011;6803;45.264;5.468;2022-12-29T07:02:59;15.50;;;11.20;;
13461;SDS011;6803;45.264;5.468;2022-12-29T07:05:30;17.33;;;10.77;;
13461;SDS011;6803;45.264;5.468;2022-12-29T07:08:01;18.80;;;11.10;;
13461;SDS011;6803;45.264;5.468;2022-12-29T07:10:32;16.33;;;10.53;;
13461;SDS011;6803;45.264;5.468;2022-12-29T07:13:03;14.80;;;10.37;;
13461;SDS011;6803;45.264;5.468;2022-12-29T07:15:36;17.50;;;12.50;;
13461;SDS011;6803;45.264;5.468;2022-12-29T07:18:07;19.80;;;12.80;;
13461;SDS011;6803;45.264;5.468;2022-12-29T07:20:38;16.50;;;11.73;;
13461;SDS011;6803;45.264;5.468;2022-12-29T07:23:08;13.63;;;10.10;;
13461;SDS011;6803;45.264;5.468;2022-12-29T07:25:39;15.40;;;11.03;;
13461;SDS011;6803;45.264;5.468;2022-12-29T07:28:10;16.27;;;10.87;;
13461;SDS011;6803;45.264;5.468;2022-12-29T07:30:42;15.17;;;10.90;;
13461;SDS011;6803;45.264;5.468;2022-12-29T07:33:14;14.43;;;9.80;;
13461;SDS011;6803;45.264;5.468;2022-12-29T07:35:45;17.33;;;11.10;;
13461;SDS011;6803;45.264;5.468;2022-12-29T07:38:16;18.10;;;11.30;;
13461;SDS011;6803;45.264;5.468;2022-12-29T07:40:46;18.03;;;11.30;;
13461;SDS011;6803;45.264;5.468;2022-12-29T07:43:17;22.43;;;10.90;;
13461;SDS011;6803;45.264;5.468;2022-12-29T07:45:48;22.83;;;10.20;;
13461;SDS011;6803;45.264;5.468;2022-12-29T07:48:19;13.13;;;9.43;;
13461;SDS011;6803;45.264;5.468;2022-12-29T07:50:50;13.57;;;9.43;;
13461;SDS011;6803;45.264;5.468;2022-12-29T07:53:22;14.10;;;10.03;;
13461;SDS011;6803;45.264;5.468;2022-12-29T07:55:53;13.60;;;9.93;;
13461;SDS011;6803;45.264;5.468;2022-12-29T07:58:24;13.63;;;10.30;;
13461;SDS011;6803;45.264;5.468;2022-12-29T08:00:55;13.07;;;8.37;;
13461;SDS011;6803;45.264;5.468;2022-12-29T08:03:26;13.60;;;9.60;;
13461;SDS011;6803;45.264;5.468;2022-12-29T08:05:57;15.53;;;9.60;;
13461;SDS011;6803;45.264;5.468;2022-12-29T08:08:27;13.77;;;8.60;;
13461;SDS011;6803;45.264;5.468;2022-12-29T08:10:59;13.27;;;8.17;;
13461;SDS011;6803;45.264;5.468;2022-12-29T08:13:31;24.03;;;10.10;;
13461;SDS011;6803;45.264;5.468;2022-12-29T08:16:01;14.37;;;8.87;;
13461;SDS011;6803;45.264;5.468;2022-12-29T08:18:33;11.83;;;8.47;;
13461;SDS011;6803;45.264;5.468;2022-12-29T08:21:04;12.73;;;9.00;;
13461;SDS011;6803;45.264;5.468;2022-12-29T08:23:44;18.47;;;10.73;;
13461;SDS011;6803;45.264;5.468;2022-12-29T08:26:16;17.17;;;10.17;;
13461;SDS011;6803;45.264;5.468;2022-12-29T08:28:46;19.90;;;9.23;;
13461;SDS011;6803;45.264;5.468;2022-12-29T08:31:17;16.63;;;9.77;;
13461;SDS011;6803;45.264;5.468;2022-12-29T08:33:48;14.63;;;9.67;;
13461;SDS011;6803;45.264;5.468;2022-12-29T08:36:19;16.17;;;10.30;;
13461;SDS011;6803;45.264;5.468;2022-12-29T08:38:49;16.27;;;9.70;;
13461;SDS011;6803;45.264;5.468;2022-12-29T08:41:20;13.07;;;9.50;;
13461;SDS011;6803;45.264;5.468;2022-12-29T08:43:51;14.87;;;10.83;;
13461;SDS011;6803;45.264;5.468;2022-12-29T08:46:22;18.80;;;11.67;;
13461;SDS011;6803;45.264;5.468;2022-12-29T08:48:53;14.40;;;10.03;;
13461;SDS011;6803;45.264;5.468;2022-12-29T08:51:24;15.50;;;10.33;;
13461;SDS011;6803;45.264;5.468;2022-12-29T08:53:55;19.23;;;10.50;;
13461;SDS011;6803;45.264;5.468;2022-12-29T08:56:26;16.07;;;9.90;;
13461;SDS011;6803;45.264;5.468;2022-12-29T08:58:56;14.03;;;9.60;;
13461;SDS011;6803;45.264;5.468;2022-12-29T09:01:27;15.70;;;10.53;;
13461;SDS011;6803;45.264;5.468;2022-12-29T09:03:59;17.50;;;10.37;;
13461;SDS011;6803;45.264;5.468;2022-12-29T09:06:31;20.00;;;9.67;;
13461;SDS011;6803;45.264;5.468;2022-12-29T09:09:03;15.73;;;10.07;;
13461;SDS011;6803;45.264;5.468;2022-12-29T09:11:34;17.90;;;11.43;;
13461;SDS011;6803;45.264;5.468;2022-12-29T09:14:05;20.03;;;12.37;;
13461;SDS011;6803;45.264;5.468;2022-12-29T09:16:36;20.07;;;11.40;;
13461;SDS011;6803;45.264;5.468;2022-12-29T09:19:07;24.10;;;15.80;;
13461;SDS011;6803;45.264;5.468;2022-12-29T09:21:38;16.87;;;11.20;;
13461;SDS011;6803;45.264;5.468;2022-12-29T09:24:09;19.70;;;12.30;;
13461;SDS011;6803;45.264;5.468;2022-12-29T09:26:39;15.23;;;10.60;;
13461;SDS011;6803;45.264;5.468;2022-12-29T09:29:12;17.00;;;9.30;;
13461;SDS011;6803;45.264;5.468;2022-12-29T09:31:42;20.90;;;10.63;;
13461;SDS011;6803;45.264;5.468;2022-12-29T09:34:13;22.17;;;10.70;;
13461;SDS011;6803;45.264;5.468;2022-12-29T09:36:44;19.63;;;9.93;;
13461;SDS011;6803;45.264;5.468;2022-12-29T09:39:15;15.13;;;9.63;;
13461;SDS011;6803;45.264;5.468;2022-12-29T09:41:48;20.17;;;9.50;;
13461;SDS011;6803;45.264;5.468;2022-12-29T09:44:23;16.60;;;8.40;;
13461;SDS011;6803;45.264;5.468;2022-12-29T09:46:56;12.77;;;8.70;;
13461;SDS011;6803;45.264;5.468;2022-12-29T09:49:28;19.33;;;10.30;;
13461;SDS011;6803;45.264;5.468;2022-12-29T09:52:03;15.90;;;9.30;;
13461;SDS011;6803;45.264;5.468;2022-12-29T09:54:45;16.20;;;9.17;;
13461;SDS011;6803;45.264;5.468;2022-12-29T09:57:21;15.97;;;9.57;;
13461;SDS011;6803;45.264;5.468;2022-12-29T09:59:55;18.03;;;10.30;;
13461;SDS011;6803;45.264;5.468;2022-12-29T10:02:33;17.57;;;9.83;;
13461;SDS011;6803;45.264;5.468;2022-12-29T10:05:18;17.17;;;10.63;;
13461;SDS011;6803;45.264;5.468;2022-12-29T10:07:54;15.47;;;11.27;;
13461;SDS011;6803;45.264;5.468;2022-12-29T10:10:33;26.93;;;11.03;;
13461;SDS011;6803;45.264;5.468;2022-12-29T10:13:20;16.00;;;10.60;;
13461;SDS011;6803;45.264;5.468;2022-12-29T10:15:58;24.63;;;13.43;;
13461;SDS011;6803;45.264;5.468;2022-12-29T10:18:37;19.13;;;11.40;;
13461;SDS011;6803;45.264;5.468;2022-12-29T10:21:14;17.73;;;8.70;;
13461;SDS011;6803;45.264;5.468;2022-12-29T10:23:49;18.17;;;8.97;;
13461;SDS011;6803;45.264;5.468;2022-12-29T10:26:22;17.27;;;8.10;;
13461;SDS011;6803;45.264;5.468;2022-12-29T10:28:56;12.93;;;8.60;;
13461;SDS011;6803;45.264;5.468;2022-12-29T10:31:31;8.97;;;5.30;;
13461;SDS011;6803;45.264;5.468;2022-12-29T10:34:05;14.83;;;10.07;;
13461;SDS011;6803;45.264;5.468;2022-12-29T10:36:38;16.10;;;8.23;;
13461;SDS011;6803;45.264;5.468;2022-12-29T10:39:14;12.87;;;7.60;;
13461;SDS011;6803;45.264;5.468;2022-12-29T10:41:49;13.13;;;8.20;;
13461;SDS011;6803;45.264;5.468;2022-12-29T10:44:29;11.10;;;6.93;;
13461;SDS011;6803;45.264;5.468;2022-12-29T10:47:03;8.67;;;5.57;;
13461;SDS011;6803;45.264;5.468;2022-12-29T10:49:45;9.97;;;5.23;;
13461;SDS011;6803;45.264;5.468;2022-12-29T10:52:24;7.93;;;4.77;;
13461;SDS011;6803;45.264;5.468;2022-12-29T10:54:58;12.60;;;4.50;;
13461;SDS011;6803;45.264;5.468;2022-12-29T10:57:32;7.10;;;4.43;;
13461;SDS011;6803;45.264;5.468;2022-12-29T11:00:10;6.73;;;4.20;;
13461;SDS011;6803;45.264;5.468;2022-12-29T11:02:48;10.60;;;4.27;;
13461;SDS011;6803;45.264;5.468;2022-12-29T11:05:28;8.90;;;5.30;;
13461;SDS011;6803;45.264;5.468;2022-12-29T11:08:01;9.90;;;5.20;;
13461;SDS011;6803;45.264;5.468;2022-12-29T11:10:42;7.20;;;4.47;;
13461;SDS011;6803;45.264;5.468;2022-12-29T11:13:14;12.43;;;4.90;;
13461;SDS011;6803;45.264;5.468;2022-12-29T11:15:49;8.43;;;4.20;;
13461;SDS011;6803;45.264;5.468;2022-12-29T11:18:22;6.13;;;4.70;;
13461;SDS011;6803;45.264;5.468;2022-12-29T11:20:54;6.00;;;4.07;;
13461;SDS011;6803;45.264;5.468;2022-12-29T11:23:31;4.37;;;3.20;;
13461;SDS011;6803;45.264;5.468;2022-12-29T11:26:15;5.90;;;3.40;;
13461;SDS011;6803;45.264;5.468;2022-12-29T11:29:02;7.53;;;4.30;;
13461;SDS011;6803;45.264;5.468;2022-12-29T11:31:40;5.70;;;3.47;;
13461;SDS011;6803;45.264;5.468;2022-12-29T11:34:17;5.53;;;3.67;;
13461;SDS011;6803;45.264;5.468;2022-12-29T11:36:51;5.90;;;3.83;;
13461;SDS011;6803;45.264;5.468;2022-12-29T11:39:27;9.40;;;3.80;;
13461;SDS011;6803;45.264;5.468;2022-12-29T11:42:03;6.50;;;4.20;;
13461;SDS011;6803;45.264;5.468;2022-12-29T11:44:37;9.30;;;3.90;;
13461;SDS011;6803;45.264;5.468;2022-12-29T11:47:13;7.93;;;4.00;;
13461;SDS011;6803;45.264;5.468;2022-12-29T11:49:58;7.27;;;3.87;;
13461;SDS011;6803;45.264;5.468;2022-12-29T11:52:32;7.47;;;3.90;;
13461;SDS011;6803;45.264;5.468;2022-12-29T11:55:21;7.40;;;4.03;;
13461;SDS011;6803;45.264;5.468;2022-12-29T11:57:42;4.60;;;3.53;;
13461;SDS011;6803;45.264;5.468;2022-12-29T12:00:17;6.37;;;3.83;;
13461;SDS011;6803;45.264;5.468;2022-12-29T12:06:43;6.03;;;4.00;;
13461;SDS011;6803;45.264;5.468;2022-12-29T12:09:21;6.23;;;3.50;;
13461;SDS011;6803;45.264;5.468;2022-12-29T12:11:54;5.23;;;3.97;;
13461;SDS011;6803;45.264;5.468;2022-12-29T12:14:27;9.93;;;4.27;;
13461;SDS011;6803;45.264;5.468;2022-12-29T12:17:09;8.53;;;4.03;;
13461;SDS011;6803;45.264;5.468;2022-12-29T12:19:41;7.17;;;3.80;;
13461;SDS011;6803;45.264;5.468;2022-12-29T12:22:16;9.30;;;3.50;;
13461;SDS011;6803;45.264;5.468;2022-12-29T12:24:49;7.87;;;3.83;;
13461;SDS011;6803;45.264;5.468;2022-12-29T12:27:23;6.13;;;3.80;;
13461;SDS011;6803;45.264;5.468;2022-12-29T12:29:58;7.07;;;3.77;;
13461;SDS011;6803;45.264;5.468;2022-12-29T12:32:34;6.60;;;3.47;;
13461;SDS011;6803;45.264;5.468;2022-12-29T12:35:07;8.40;;;3.90;;
13461;SDS011;6803;45.264;5.468;2022-12-29T12:37:52;7.40;;;3.77;;
13461;SDS011;6803;45.264;5.468;2022-12-29T12:40:35;4.67;;;3.60;;
13461;SDS011;6803;45.264;5.468;2022-12-29T12:43:20;4.13;;;3.40;;
13461;SDS011;6803;45.264;5.468;2022-12-29T12:46:08;6.83;;;3.50;;
13461;SDS011;6803;45.264;5.468;2022-12-29T12:48:55;7.43;;;3.80;;
13461;SDS011;6803;45.264;5.468;2022-12-29T12:51:38;5.87;;;3.40;;
13461;SDS011;6803;45.264;5.468;2022-12-29T12:54:14;4.77;;;3.00;;
13461;SDS011;6803;45.264;5.468;2022-12-29T12:57:02;6.40;;;3.27;;
13461;SDS011;6803;45.264;5.468;2022-12-29T12:59:42;7.17;;;3.60;;
13461;SDS011;6803;45.264;5.468;2022-12-29T13:02:28;7.10;;;4.00;;
13461;SDS011;6803;45.264;5.468;2022-12-29T13:05:13;7.93;;;3.40;;
13461;SDS011;6803;45.264;5.468;2022-12-29T13:07:57;7.40;;;2.97;;
13461;SDS011;6803;45.264;5.468;2022-12-29T13:10:35;11.47;;;3.30;;
13461;SDS011;6803;45.264;5.468;2022-12-29T13:15:56;6.73;;;2.73;;
13461;SDS011;6803;45.264;5.468;2022-12-29T13:18:33;9.93;;;3.47;;
13461;SDS011;6803;45.264;5.468;2022-12-29T13:21:14;7.03;;;3.00;;
13461;SDS011;6803;45.264;5.468;2022-12-29T13:23:49;8.03;;;3.13;;
13461;SDS011;6803;45.264;5.468;2022-12-29T13:26:22;6.17;;;3.50;;
13461;SDS011;6803;45.264;5.468;2022-12-29T13:28:59;5.57;;;3.00;;
13461;SDS011;6803;45.264;5.468;2022-12-29T13:31:38;5.63;;;3.03;;
13461;SDS011;6803;45.264;5.468;2022-12-29T13:34:13;12.80;;;6.63;;
13461;SDS011;6803;45.264;5.468;2022-12-29T13:36:46;8.13;;;4.00;;
13461;SDS011;6803;45.264;5.468;2022-12-29T13:39:37;9.63;;;3.97;;
13461;SDS011;6803;45.264;5.468;2022-12-29T13:42:18;10.23;;;3.33;;
13461;SDS011;6803;45.264;5.468;2022-12-29T13:44:53;8.13;;;2.97;;
13461;SDS011;6803;45.264;5.468;2022-12-29T13:47:27;7.10;;;2.90;;
13461;SDS011;6803;45.264;5.468;2022-12-29T13:50:11;7.50;;;2.80;;
13461;SDS011;6803;45.264;5.468;2022-12-29T13:52:44;9.10;;;3.60;;
13461;SDS011;6803;45.264;5.468;2022-12-29T13:55:22;6.13;;;3.03;;
13461;SDS011;6803;45.264;5.468;2022-12-29T13:57:57;6.77;;;3.50;;
13461;SDS011;6803;45.264;5.468;2022-12-29T14:00:31;6.47;;;3.17;;
13461;SDS011;6803;45.264;5.468;2022-12-29T14:03:10;6.63;;;3.50;;
13461;SDS011;6803;45.264;5.468;2022-12-29T14:08:34;7.97;;;2.97;;
13461;SDS011;6803;45.264;5.468;2022-12-29T14:11:07;8.43;;;3.27;;
13461;SDS011;6803;45.264;5.468;2022-12-29T14:13:39;6.03;;;3.20;;
13461;SDS011;6803;45.264;5.468;2022-12-29T14:16:21;10.17;;;3.73;;
13461;SDS011;6803;45.264;5.468;2022-12-29T14:18:56;7.17;;;2.50;;
13461;SDS011;6803;45.264;5.468;2022-12-29T14:21:34;7.60;;;3.43;;
13461;SDS011;6803;45.264;5.468;2022-12-29T14:33:17;11.00;;;3.50;;
13461;SDS011;6803;45.264;5.468;2022-12-29T14:35:49;6.07;;;3.10;;
13461;SDS011;6803;45.264;5.468;2022-12-29T14:38:24;9.60;;;3.67;;
13461;SDS011;6803;45.264;5.468;2022-12-29T14:43:55;7.10;;;3.23;;
13461;SDS011;6803;45.264;5.468;2022-12-29T14:49:24;8.63;;;3.20;;
13461;SDS011;6803;45.264;5.468;2022-12-29T14:52:05;8.07;;;3.47;;
13461;SDS011;6803;45.264;5.468;2022-12-29T14:54:54;6.80;;;3.37;;
13461;SDS011;6803;45.264;5.468;2022-12-29T14:57:33;8.03;;;3.83;;
13461;SDS011;6803;45.264;5.468;2022-12-29T15:00:16;10.03;;;3.37;;
13461;SDS011;6803;45.264;5.468;2022-12-29T15:02:54;6.17;;;3.30;;
13461;SDS011;6803;45.264;5.468;2022-12-29T15:05:29;7.60;;;3.77;;
13461;SDS011;6803;45.264;5.468;2022-12-29T15:08:03;10.73;;;3.60;;
13461;SDS011;6803;45.264;5.468;2022-12-29T15:10:37;11.77;;;4.47;;
13461;SDS011;6803;45.264;5.468;2022-12-29T15:13:16;6.73;;;3.17;;
13461;SDS011;6803;45.264;5.468;2022-12-29T15:15:48;7.90;;;3.97;;
13461;SDS011;6803;45.264;5.468;2022-12-29T15:18:22;7.80;;;3.53;;
13461;SDS011;6803;45.264;5.468;2022-12-29T15:20:55;5.67;;;3.53;;
13461;SDS011;6803;45.264;5.468;2022-12-29T15:23:28;9.27;;;4.03;;
13461;SDS011;6803;45.264;5.468;2022-12-29T15:26:02;9.83;;;4.13;;
13461;SDS011;6803;45.264;5.468;2022-12-29T15:28:38;6.90;;;3.33;;
13461;SDS011;6803;45.264;5.468;2022-12-29T15:31:19;12.27;;;4.20;;
13461;SDS011;6803;45.264;5.468;2022-12-29T15:33:54;10.53;;;3.40;;
13461;SDS011;6803;45.264;5.468;2022-12-29T15:36:27;8.50;;;4.23;;
13461;SDS011;6803;45.264;5.468;2022-12-29T15:38:58;10.03;;;5.37;;
13461;SDS011;6803;45.264;5.468;2022-12-29T15:41:32;14.20;;;5.97;;
13461;SDS011;6803;45.264;5.468;2022-12-29T15:44:10;7.63;;;4.83;;
13461;SDS011;6803;45.264;5.468;2022-12-29T15:46:43;12.33;;;5.27;;
13461;SDS011;6803;45.264;5.468;2022-12-29T15:49:14;9.37;;;5.00;;
13461;SDS011;6803;45.264;5.468;2022-12-29T15:51:46;22.27;;;6.00;;
13461;SDS011;6803;45.264;5.468;2022-12-29T15:54:19;13.57;;;5.63;;
13461;SDS011;6803;45.264;5.468;2022-12-29T15:56:51;11.33;;;5.20;;
13461;SDS011;6803;45.264;5.468;2022-12-29T15:59:23;9.27;;;5.40;;
13461;SDS011;6803;45.264;5.468;2022-12-29T16:01:56;10.07;;;4.90;;
13461;SDS011;6803;45.264;5.468;2022-12-29T16:04:30;11.43;;;5.00;;